createdAt,value
2018-05-12T00:03:28.477Z,13.40
2018-05-12T00:08:57.380Z,13.30
2018-05-12T00:14:25.537Z,13.30
2018-05-12T00:19:54.451Z,13.20
2018-05-12T00:25:22.601Z,13.20
2018-05-12T00:30:50.836Z,13.20
2018-05-12T00:36:19.004Z,13.20
2018-05-12T00:41:47.170Z,13.20
2018-05-12T00:47:15.308Z,13.20
2018-05-12T00:52:43.459Z,13.20
2018-05-12T00:58:11.622Z,13.10
2018-05-12T01:03:39.775Z,13.10
2018-05-12T01:09:07.940Z,13.10
2018-05-12T01:14:36.865Z,13.10
2018-05-12T01:20:05.030Z,13.10
2018-05-12T01:25:33.196Z,13.00
2018-05-12T01:31:01.346Z,13.00
2018-05-12T01:36:30.260Z,13.00
2018-05-12T01:41:58.423Z,12.90
2018-05-12T01:47:26.594Z,12.90
2018-05-12T01:52:54.761Z,12.80
2018-05-12T01:58:22.903Z,12.70
2018-05-12T02:03:51.071Z,12.60
2018-05-12T02:09:19.208Z,12.60
2018-05-12T02:14:48.125Z,12.50
2018-05-12T02:20:16.271Z,12.40
2018-05-12T02:25:45.192Z,12.40
2018-05-12T02:31:14.105Z,12.30
2018-05-12T02:36:42.259Z,12.30
2018-05-12T02:42:11.193Z,12.20
2018-05-12T02:47:40.149Z,12.10
2018-05-12T02:53:08.313Z,12.10
2018-05-12T02:58:36.475Z,12.10
2018-05-12T03:04:05.391Z,12.00
2018-05-12T03:09:33.543Z,12.00
2018-05-12T03:15:01.713Z,12.00
2018-05-12T03:20:29.882Z,12.00
2018-05-12T03:25:58.822Z,12.00
2018-05-12T03:31:27.740Z,12.00
2018-05-12T03:36:55.891Z,12.10
2018-05-12T03:42:24.045Z,12.10
2018-05-12T03:47:52.222Z,12.10
2018-05-12T03:53:20.359Z,12.10
2018-05-12T03:58:48.515Z,12.20
2018-05-12T04:04:34.527Z,12.30
2018-05-12T04:10:21.778Z,12.40
2018-05-12T04:15:49.924Z,12.60
2018-05-12T04:21:18.056Z,12.70
2018-05-12T04:26:46.203Z,12.70
2018-05-12T04:32:14.334Z,12.80
2018-05-12T04:37:43.262Z,12.80
2018-05-12T04:43:12.204Z,12.90
2018-05-12T04:48:40.344Z,13.00
2018-05-12T04:54:08.566Z,13.10
2018-05-12T04:59:36.672Z,13.20
2018-05-12T05:05:05.582Z,13.30
2018-05-12T05:10:33.744Z,13.40
2018-05-12T05:16:01.904Z,13.50
2018-05-12T05:21:30.062Z,13.60
2018-05-12T05:26:58.974Z,13.80
2018-05-12T05:32:27.116Z,14.10
2018-05-12T05:37:56.024Z,14.20
2018-05-12T05:43:24.197Z,14.30
2018-05-12T05:48:52.365Z,14.40
2018-05-12T05:54:20.507Z,14.50
2018-05-12T05:59:49.444Z,14.60
2018-05-12T06:05:18.369Z,14.70
2018-05-12T06:11:03.757Z,14.80
2018-05-12T06:16:32.424Z,15.00
2018-05-12T06:22:00.569Z,15.10
2018-05-12T06:27:29.493Z,15.20
2018-05-12T06:32:57.663Z,15.30
2018-05-12T06:38:25.841Z,15.40
2018-05-12T06:43:54.752Z,15.60
2018-05-12T06:49:22.896Z,15.70
2018-05-12T06:54:51.825Z,15.90
2018-05-12T07:00:19.972Z,16.30
2018-05-12T07:05:48.880Z,16.70
2018-05-12T07:11:17.034Z,17.20
2018-05-12T07:16:45.192Z,17.70
2018-05-12T07:22:13.353Z,18.20
2018-05-12T07:27:42.252Z,18.50
2018-05-12T07:33:10.419Z,18.80
2018-05-12T07:38:39.350Z,19.10
2018-05-12T07:44:08.284Z,19.40
2018-05-12T07:49:36.437Z,19.70
2018-05-12T07:55:04.598Z,19.90
2018-05-12T08:00:32.793Z,20.20
2018-05-12T08:06:00.952Z,20.40
2018-05-12T08:11:29.105Z,20.50
2018-05-12T08:16:57.273Z,20.60
2018-05-12T08:22:25.436Z,20.90
2018-05-12T08:27:54.325Z,21.00
2018-05-12T08:33:22.484Z,21.30
2018-05-12T08:38:52.338Z,21.40
2018-05-12T08:44:20.488Z,21.60
2018-05-12T08:49:48.635Z,21.80
2018-05-12T08:55:16.788Z,21.90
2018-05-12T09:00:44.945Z,21.90
2018-05-12T09:06:13.088Z,22.10
2018-05-12T09:11:41.223Z,22.40
2018-05-12T09:17:09.387Z,22.40
2018-05-12T09:22:38.297Z,22.20
2018-05-12T09:28:06.457Z,22.30
2018-05-12T09:33:34.632Z,22.60
2018-05-12T09:39:02.810Z,22.60
2018-05-12T09:44:30.947Z,22.70
2018-05-12T09:49:59.113Z,22.90
2018-05-12T09:55:28.032Z,23.20
2018-05-12T10:00:56.206Z,23.30
2018-05-12T10:06:24.467Z,23.70
2018-05-12T10:11:53.575Z,23.70
2018-05-12T10:17:21.736Z,24.00
2018-05-12T10:22:49.868Z,24.00
2018-05-12T10:28:19.797Z,24.30
2018-05-12T10:33:47.987Z,24.40
2018-05-12T10:39:16.142Z,24.60
2018-05-12T10:44:44.399Z,24.40
2018-05-12T10:50:13.234Z,24.20
2018-05-12T10:55:42.140Z,24.40
2018-05-12T11:01:10.310Z,24.60
2018-05-12T11:06:38.585Z,24.70
2018-05-12T11:12:06.759Z,24.90
2018-05-12T11:17:34.987Z,25.00
2018-05-12T11:23:03.154Z,25.20
2018-05-12T11:28:31.354Z,25.20
2018-05-12T11:33:59.483Z,25.40
2018-05-12T11:39:27.642Z,25.40
2018-05-12T11:44:56.706Z,25.40
2018-05-12T11:50:24.872Z,25.50
2018-05-12T11:55:54.734Z,25.70
2018-05-12T12:01:22.896Z,25.70
2018-05-12T12:06:51.032Z,25.30
2018-05-12T12:12:19.178Z,25.30
2018-05-12T12:17:47.373Z,25.50
2018-05-12T12:23:15.824Z,25.70
2018-05-12T12:28:44.002Z,25.70
2018-05-12T12:34:12.132Z,25.80
2018-05-12T12:39:40.309Z,25.90
2018-05-12T12:45:09.000Z,26.10
2018-05-12T12:50:38.426Z,26.20
2018-05-12T12:56:07.623Z,26.10
2018-05-12T13:01:36.028Z,25.70
2018-05-12T13:07:05.182Z,25.50
2018-05-12T13:12:33.391Z,25.70
2018-05-12T13:18:01.687Z,25.80
2018-05-12T13:23:29.838Z,25.90
2018-05-12T13:28:57.990Z,26.20
2018-05-12T13:34:26.129Z,25.90
2018-05-12T13:39:54.273Z,25.80
2018-05-12T13:45:23.237Z,25.70
2018-05-12T13:50:51.388Z,25.60
2018-05-12T13:56:20.289Z,25.40
2018-05-12T14:01:48.449Z,25.50
2018-05-12T14:07:17.392Z,25.60
2018-05-12T14:12:45.517Z,25.80
2018-05-12T14:18:14.441Z,25.80
2018-05-12T14:23:43.357Z,26.00
2018-05-12T14:29:11.506Z,26.10
2018-05-12T14:34:40.442Z,26.20
2018-05-12T14:40:09.350Z,26.80
2018-05-12T14:45:37.575Z,28.10
2018-05-12T14:51:06.641Z,29.40
2018-05-12T14:56:35.568Z,31.40
2018-05-12T15:02:03.811Z,30.50
2018-05-12T15:07:31.972Z,29.20
2018-05-12T15:13:00.139Z,28.40
2018-05-12T15:18:29.046Z,27.70
2018-05-12T15:23:57.189Z,27.00
2018-05-12T15:29:26.095Z,26.70
2018-05-12T15:34:54.229Z,26.30
2018-05-12T15:40:22.366Z,26.20
2018-05-12T15:45:51.281Z,26.10
2018-05-12T15:51:19.433Z,26.10
2018-05-12T15:56:48.350Z,26.10
2018-05-12T16:02:17.273Z,26.20
2018-05-12T16:07:45.448Z,26.20
2018-05-12T16:13:13.617Z,26.20
2018-05-12T16:18:42.097Z,26.10
2018-05-12T16:24:10.275Z,25.80
2018-05-12T16:29:38.510Z,25.80
2018-05-12T16:35:07.485Z,25.70
2018-05-12T16:40:35.687Z,25.60
2018-05-12T16:46:03.892Z,25.60
2018-05-12T16:51:32.107Z,25.50
2018-05-12T16:57:01.024Z,25.50
2018-05-12T17:02:29.197Z,25.20
2018-05-12T17:07:57.344Z,25.00
2018-05-12T17:13:26.252Z,24.90
2018-05-12T17:18:54.419Z,24.70
2018-05-12T17:24:22.571Z,24.70
2018-05-12T17:29:51.487Z,24.60
2018-05-12T17:35:19.607Z,24.50
2018-05-12T17:40:47.762Z,24.40
2018-05-12T17:46:15.925Z,24.30
2018-05-12T17:51:44.222Z,24.20
2018-05-12T17:57:12.386Z,24.10
2018-05-12T18:02:40.814Z,24.00
2018-05-12T18:08:09.026Z,23.80
2018-05-12T18:13:37.276Z,23.70
2018-05-12T18:19:06.386Z,23.50
2018-05-12T18:24:34.611Z,23.40
2018-05-12T18:30:02.820Z,23.70
2018-05-12T18:35:31.797Z,23.30
2018-05-12T18:41:00.746Z,23.00
2018-05-12T18:46:29.658Z,22.80
2018-05-12T18:51:57.813Z,22.50
2018-05-12T18:57:25.965Z,22.20
2018-05-12T19:02:54.105Z,22.00
2018-05-12T19:08:22.350Z,21.70
2018-05-12T19:13:50.399Z,21.50
2018-05-12T19:19:18.547Z,21.40
2018-05-12T19:24:46.698Z,21.20
2018-05-12T19:30:14.858Z,21.10
2018-05-12T19:35:43.013Z,20.90
2018-05-12T19:41:11.159Z,20.80
2018-05-12T19:46:39.330Z,20.70
2018-05-12T19:52:07.617Z,20.50
2018-05-12T19:57:36.588Z,20.40
2018-05-12T20:03:04.791Z,20.30
2018-05-12T20:08:32.953Z,20.20
2018-05-12T20:14:01.131Z,20.10
2018-05-12T20:19:29.282Z,20.00
2018-05-12T20:24:57.421Z,19.80
2018-05-12T20:30:25.557Z,19.70
2018-05-12T20:35:53.700Z,19.50
2018-05-12T20:41:21.860Z,19.40
2018-05-12T20:46:50.005Z,19.20
2018-05-12T20:52:18.171Z,19.10
2018-05-12T20:57:46.317Z,18.90
2018-05-12T21:03:14.516Z,18.70
2018-05-12T21:08:42.679Z,18.60
2018-05-12T21:14:10.867Z,18.40
2018-05-12T21:19:39.047Z,18.30
2018-05-12T21:25:07.259Z,18.20
2018-05-12T21:30:36.198Z,18.10
2018-05-12T21:36:05.163Z,18.00
2018-05-12T21:41:33.338Z,17.80
2018-05-12T21:47:02.609Z,17.70
2018-05-12T21:52:31.551Z,17.50
2018-05-12T21:58:00.460Z,17.40
2018-05-12T22:03:28.592Z,17.30
2018-05-12T22:08:56.749Z,17.20
2018-05-12T22:14:24.889Z,17.20
2018-05-12T22:19:53.085Z,17.10
2018-05-12T22:25:21.240Z,16.90
2018-05-12T22:30:49.392Z,16.80
2018-05-12T22:36:17.561Z,17.20
2018-05-12T22:41:45.704Z,16.90
2018-05-12T22:47:15.413Z,16.70
2018-05-12T22:52:43.526Z,16.60
2018-05-12T22:58:12.464Z,16.40
2018-05-12T23:03:40.632Z,16.30
2018-05-12T23:09:08.780Z,16.10
2018-05-12T23:14:36.955Z,16.10
2018-05-12T23:20:05.107Z,16.00
2018-05-12T23:25:33.253Z,15.80
2018-05-12T23:31:02.378Z,15.70
2018-05-12T23:36:30.573Z,15.70
2018-05-12T23:41:58.735Z,15.60
2018-05-12T23:47:27.637Z,15.50
2018-05-12T23:52:55.779Z,15.40
2018-05-12T23:58:24.717Z,15.30
